createdAt,value
2023-05-14T15:08:55.426Z,15.35
2023-05-14T15:09:57.039Z,8.18
2023-05-14T15:10:58.647Z,8.30
2023-05-14T15:12:00.245Z,8.23
2023-05-14T15:13:01.839Z,8.55
2023-05-14T15:14:03.457Z,8.13
2023-05-14T15:15:05.478Z,11.40
2023-05-14T15:16:07.285Z,6.80
2023-05-14T15:17:09.041Z,7.43
2023-05-14T15:18:10.798Z,9.10
2023-05-14T15:19:12.562Z,6.43
2023-05-14T15:20:14.274Z,8.18
2023-05-14T15:21:15.891Z,8.60
2023-05-14T15:22:17.506Z,7.18
2023-05-14T15:23:19.114Z,7.03
2023-05-14T15:24:20.725Z,9.13
2023-05-14T15:25:23.277Z,7.50
2023-05-14T15:26:25.128Z,6.82
2023-05-14T15:27:26.750Z,7.28
2023-05-14T15:28:28.373Z,7.20
2023-05-14T15:29:29.989Z,8.38
2023-05-14T15:30:31.616Z,7.45
2023-05-14T15:31:33.358Z,8.32
2023-05-14T15:32:35.071Z,10.57
2023-05-14T15:33:36.745Z,16.67
2023-05-14T15:34:38.384Z,9.50
2023-05-14T15:35:40.009Z,8.70
2023-05-14T15:36:41.625Z,8.82
2023-05-14T15:37:44.090Z,12.95
2023-05-14T15:38:45.735Z,10.65
2023-05-14T15:39:50.457Z,10.27
2023-05-14T15:40:52.077Z,8.68
2023-05-14T15:41:53.745Z,8.85
2023-05-14T15:42:55.372Z,8.90
2023-05-14T15:43:56.985Z,9.05
2023-05-14T15:44:58.624Z,8.13
2023-05-14T15:46:00.274Z,8.55
2023-05-14T15:47:01.957Z,10.23
2023-05-14T15:48:03.684Z,7.95
2023-05-14T15:49:05.349Z,8.18
2023-05-14T15:50:07.817Z,8.23
2023-05-14T15:51:09.431Z,9.18
2023-05-14T15:52:11.080Z,9.18
2023-05-14T15:53:12.733Z,8.57
2023-05-14T15:54:14.352Z,8.82
2023-05-14T15:55:15.974Z,7.88
2023-05-14T15:56:17.560Z,8.23
2023-05-14T15:57:20.073Z,10.95
2023-05-14T15:58:21.904Z,8.25
2023-05-14T15:59:23.538Z,7.15
2023-05-14T16:00:25.381Z,9.60
2023-05-14T16:01:27.243Z,8.88
2023-05-14T16:02:28.978Z,7.88
2023-05-14T16:03:30.663Z,7.82
2023-05-14T16:04:32.399Z,8.40
2023-05-14T16:05:34.100Z,9.23
2023-05-14T16:06:35.775Z,10.25
2023-05-14T16:07:37.400Z,7.85
2023-05-14T16:08:39.031Z,9.05
2023-05-14T16:09:40.653Z,9.23
2023-05-14T16:10:42.287Z,9.57
2023-05-14T16:11:43.926Z,9.10
2023-05-14T16:12:45.561Z,8.88
2023-05-14T16:13:47.321Z,10.15
2023-05-14T16:14:48.949Z,9.82
2023-05-14T16:15:50.602Z,10.38
2023-05-14T16:16:53.274Z,9.70
2023-05-14T16:17:54.986Z,9.60
2023-05-14T16:18:56.684Z,9.95
2023-05-14T16:19:59.898Z,10.60
2023-05-14T16:21:01.601Z,10.43
2023-05-14T16:22:03.261Z,10.95
2023-05-14T16:23:04.890Z,10.88
2023-05-14T16:24:07.093Z,10.43
2023-05-14T16:26:10.249Z,9.63
2023-05-14T16:27:11.847Z,11.27
2023-05-14T16:28:13.566Z,11.15
2023-05-14T16:29:15.196Z,10.60
2023-05-14T16:30:16.842Z,10.85
2023-05-14T16:31:18.508Z,9.27
2023-05-14T16:32:20.294Z,11.10
2023-05-14T16:33:21.937Z,10.20
2023-05-14T16:34:23.570Z,9.82
2023-05-14T16:35:25.183Z,9.85
2023-05-14T16:36:26.893Z,17.92
2023-05-14T16:37:28.533Z,11.05
2023-05-14T16:38:30.146Z,11.57
2023-05-14T16:39:31.760Z,9.60
2023-05-14T16:40:33.374Z,12.27
2023-05-14T16:41:35.556Z,11.70
2023-05-14T16:43:38.914Z,11.68
2023-05-14T16:44:40.563Z,9.98
2023-05-14T16:45:42.225Z,12.88
2023-05-14T16:46:45.900Z,12.77
2023-05-14T16:47:47.716Z,11.90
2023-05-14T16:48:49.431Z,11.75
2023-05-14T16:49:51.065Z,13.13
2023-05-14T16:50:52.735Z,12.65
2023-05-14T16:51:54.367Z,13.50
2023-05-14T16:52:55.984Z,12.10
2023-05-14T16:53:57.596Z,11.18
2023-05-14T16:54:59.219Z,12.65
2023-05-14T16:56:01.140Z,11.65
2023-05-14T16:57:02.806Z,13.18
2023-05-14T16:58:04.444Z,11.50
2023-05-14T16:59:06.045Z,10.75
2023-05-14T17:00:08.602Z,10.30
2023-05-14T17:01:10.336Z,10.82
2023-05-14T17:02:12.000Z,9.68
2023-05-14T17:03:13.634Z,11.30
2023-05-14T17:04:15.298Z,11.05
2023-05-14T17:05:24.273Z,12.38
2023-05-14T17:06:26.245Z,10.65
2023-05-14T17:07:28.327Z,11.10
2023-05-14T17:08:29.975Z,11.98
2023-05-14T17:09:31.579Z,10.02
2023-05-14T17:10:33.222Z,11.25
2023-05-14T17:11:35.165Z,11.02
2023-05-14T17:12:36.913Z,10.27
2023-05-14T17:13:38.653Z,11.23
2023-05-14T17:14:40.244Z,11.10
2023-05-14T17:15:41.955Z,10.20
2023-05-14T17:16:43.621Z,9.18
2023-05-14T17:17:45.317Z,10.55
2023-05-14T17:18:46.984Z,11.18
2023-05-14T17:19:48.684Z,9.75
2023-05-14T17:20:50.353Z,10.23
2023-05-14T17:21:52.000Z,12.23
2023-05-14T17:22:53.691Z,12.10
2023-05-14T17:23:55.322Z,12.32
2023-05-14T17:24:56.986Z,11.85
2023-05-14T17:25:58.610Z,12.55
2023-05-14T17:27:00.468Z,10.63
2023-05-14T17:28:02.152Z,10.40
2023-05-14T17:29:03.785Z,9.85
2023-05-14T17:30:06.027Z,10.25
2023-05-14T17:32:09.241Z,10.43
2023-05-14T17:33:11.003Z,11.32
2023-05-14T17:34:12.635Z,11.13
2023-05-14T17:35:14.253Z,13.00
2023-05-14T17:36:15.898Z,10.95
2023-05-14T17:37:17.551Z,11.52
2023-05-14T17:38:19.428Z,11.05
2023-05-14T17:39:21.076Z,12.55
2023-05-14T17:40:22.740Z,12.05
2023-05-14T17:41:24.377Z,13.45
2023-05-14T17:42:26.076Z,11.93
2023-05-14T17:43:27.928Z,13.70
2023-05-14T17:44:29.878Z,11.15
2023-05-14T17:45:39.477Z,13.77
2023-05-14T17:46:48.343Z,12.50
2023-05-14T17:47:50.039Z,12.05
2023-05-14T17:48:51.783Z,12.93
2023-05-14T17:49:56.114Z,12.27
2023-05-14T17:50:57.765Z,11.07
2023-05-14T17:51:59.463Z,11.75
2023-05-14T17:53:01.085Z,12.00
2023-05-14T17:54:02.733Z,11.27
2023-05-14T17:55:05.342Z,13.57
2023-05-14T17:56:07.119Z,12.05
2023-05-14T17:57:08.979Z,13.07
2023-05-14T17:58:11.582Z,12.20
2023-05-14T17:59:13.209Z,13.68
2023-05-14T18:00:15.124Z,12.52
2023-05-14T18:01:17.067Z,14.43
2023-05-14T18:02:18.750Z,11.75
2023-05-14T18:03:20.630Z,10.68
2023-05-14T18:04:22.385Z,12.30
2023-05-14T18:05:24.525Z,11.35
2023-05-14T18:07:28.584Z,10.60
2023-05-14T18:08:30.269Z,12.00
2023-05-14T18:09:32.080Z,11.35
2023-05-14T18:10:34.269Z,11.32
2023-05-14T18:11:35.961Z,12.40
2023-05-14T18:12:37.584Z,11.35
2023-05-14T18:13:39.481Z,10.98
2023-05-14T18:14:41.541Z,12.73
2023-05-14T18:15:44.218Z,12.90
2023-05-14T18:16:45.970Z,11.88
2023-05-14T18:17:47.869Z,11.13
2023-05-14T18:18:49.883Z,12.70
2023-05-14T18:19:51.903Z,12.65
2023-05-14T18:20:53.672Z,11.48
2023-05-14T18:21:55.716Z,10.57
2023-05-14T18:22:58.076Z,11.50
2023-05-14T18:23:59.780Z,11.43
2023-05-14T18:25:01.872Z,11.85
2023-05-14T18:26:03.569Z,11.10
2023-05-14T18:27:05.256Z,11.55
2023-05-14T18:28:06.924Z,12.23
2023-05-14T18:29:08.637Z,10.18
2023-05-14T18:30:14.186Z,10.35
2023-05-14T18:31:16.286Z,10.00
2023-05-14T18:32:18.367Z,9.10
2023-05-14T18:33:20.422Z,9.23
2023-05-14T18:34:22.474Z,10.10
2023-05-14T18:35:24.896Z,10.50
2023-05-14T18:36:27.123Z,9.63
2023-05-14T18:37:28.825Z,9.68
2023-05-14T18:38:32.261Z,8.57
2023-05-14T18:40:36.114Z,9.60
2023-05-14T18:41:38.341Z,9.70
2023-05-14T18:43:42.181Z,9.68
2023-05-14T18:45:46.564Z,8.07
2023-05-14T18:46:49.740Z,7.80
2023-05-14T18:47:52.231Z,9.55
2023-05-14T18:48:54.325Z,10.23
2023-05-14T18:49:56.057Z,8.52
2023-05-14T18:50:57.672Z,9.27
2023-05-14T18:51:59.680Z,9.75
2023-05-14T18:53:01.442Z,8.93
2023-05-14T18:54:03.104Z,8.32
2023-05-14T18:55:06.639Z,8.73
2023-05-14T18:56:08.785Z,8.32
2023-05-14T18:58:13.634Z,9.93
2023-05-14T18:59:15.307Z,9.52
2023-05-14T19:00:17.345Z,8.82
2023-05-14T19:01:19.097Z,10.00
2023-05-14T19:02:21.392Z,10.27
2023-05-14T19:03:23.661Z,10.77
2023-05-14T19:04:25.725Z,8.43
2023-05-14T19:05:28.040Z,9.25
2023-05-14T19:06:31.653Z,9.93
2023-05-14T19:07:33.479Z,8.43
2023-05-14T19:08:35.669Z,10.27
2023-05-14T19:10:39.978Z,10.55
2023-05-14T19:11:42.281Z,10.43
2023-05-14T19:12:43.988Z,9.48
2023-05-14T19:13:45.621Z,10.93
2023-05-14T19:14:47.529Z,11.00
2023-05-14T19:15:49.186Z,9.00
2023-05-14T19:16:51.176Z,10.07
2023-05-14T19:17:53.475Z,11.63
2023-05-14T19:18:55.268Z,10.02
2023-05-14T19:19:56.887Z,10.77
2023-05-14T19:20:58.880Z,11.65
2023-05-14T19:22:00.635Z,11.57
2023-05-14T19:23:02.394Z,10.98
2023-05-14T19:24:04.575Z,10.82
2023-05-14T19:25:07.962Z,11.20
2023-05-14T19:26:10.478Z,9.35
2023-05-14T19:28:14.078Z,10.35
2023-05-14T19:29:15.812Z,11.43
2023-05-14T19:30:17.679Z,10.13
2023-05-14T19:31:20.148Z,10.77
2023-05-14T19:32:21.907Z,10.98
2023-05-14T19:33:23.541Z,10.43
2023-05-14T19:34:25.328Z,9.10
2023-05-14T19:35:27.431Z,10.60
2023-05-14T19:37:30.969Z,8.55
2023-05-14T19:38:32.619Z,9.88
2023-05-14T19:39:34.709Z,10.45
2023-05-14T19:41:38.627Z,9.68
2023-05-14T19:42:40.347Z,9.30
2023-05-14T19:43:41.976Z,9.43
2023-05-14T19:44:43.615Z,9.02
2023-05-14T19:45:45.474Z,8.45
2023-05-14T19:46:47.504Z,9.05
2023-05-14T19:48:51.041Z,8.25
2023-05-14T19:49:53.058Z,9.00
2023-05-14T19:50:54.791Z,7.85
2023-05-14T19:51:56.725Z,8.68
2023-05-14T19:52:58.402Z,9.05
2023-05-14T19:54:00.032Z,8.40
2023-05-14T19:55:01.672Z,11.00
2023-05-14T19:56:03.367Z,8.13
2023-05-14T19:57:05.256Z,8.65
2023-05-14T19:58:06.953Z,9.27
2023-05-14T19:59:09.030Z,9.00
2023-05-14T20:01:13.144Z,9.23
2023-05-14T20:02:14.885Z,9.32
2023-05-14T20:03:16.843Z,8.55
2023-05-14T20:04:18.547Z,9.25
2023-05-14T20:05:20.182Z,9.60
2023-05-14T20:06:22.129Z,8.20
2023-05-14T20:07:24.071Z,10.43
2023-05-14T20:08:25.905Z,8.95
2023-05-14T20:09:27.533Z,10.10
2023-05-14T20:10:29.232Z,8.80
2023-05-14T20:11:30.845Z,7.47
2023-05-14T20:12:32.467Z,8.52
2023-05-14T20:13:34.123Z,8.80
2023-05-14T20:14:36.896Z,9.95
2023-05-14T20:15:39.489Z,8.15
2023-05-14T20:16:41.146Z,7.70
2023-05-14T20:17:43.203Z,8.57
2023-05-14T20:18:44.917Z,7.25
2023-05-14T20:19:46.801Z,7.65
2023-05-14T20:20:48.789Z,7.60
2023-05-14T20:21:50.515Z,8.82
2023-05-14T20:22:52.198Z,7.22
2023-05-14T20:23:54.240Z,6.95
2023-05-14T20:25:57.462Z,7.30
2023-05-14T20:26:59.109Z,6.85
2023-05-14T20:28:00.851Z,8.73
2023-05-14T20:29:02.597Z,6.75
2023-05-14T20:30:04.681Z,8.48
2023-05-14T20:31:06.454Z,8.57
2023-05-14T20:32:08.212Z,9.88
2023-05-14T20:33:09.865Z,8.82
2023-05-14T20:34:11.540Z,9.13
2023-05-14T20:35:13.156Z,9.38
2023-05-14T20:36:14.767Z,9.80
2023-05-14T20:37:16.607Z,9.27
2023-05-14T20:38:18.216Z,11.65
2023-05-14T20:39:19.853Z,10.52
2023-05-14T20:40:21.609Z,9.45
2023-05-14T20:41:23.276Z,10.20
2023-05-14T20:42:24.995Z,8.65
2023-05-14T20:43:27.071Z,9.70
2023-05-14T20:44:28.706Z,9.20
2023-05-14T20:45:30.405Z,8.65
2023-05-14T20:46:32.082Z,8.20
2023-05-14T20:47:34.840Z,7.68
2023-05-14T20:48:36.461Z,8.27
2023-05-14T20:49:38.086Z,8.77
2023-05-14T20:50:39.682Z,8.65
2023-05-14T20:51:41.364Z,8.23
2023-05-14T20:52:42.994Z,8.50
2023-05-14T20:53:44.601Z,8.85
2023-05-14T20:54:46.360Z,8.27
2023-05-14T20:55:48.153Z,8.90
2023-05-14T20:56:49.755Z,8.93
2023-05-14T20:57:51.381Z,9.70
2023-05-14T20:58:53.005Z,8.18
2023-05-14T20:59:54.618Z,10.30
2023-05-14T21:00:57.197Z,8.43
2023-05-14T21:01:59.666Z,9.93
2023-05-14T21:03:01.433Z,10.50
2023-05-14T21:04:03.495Z,9.82
2023-05-14T21:05:05.741Z,9.02
2023-05-14T21:06:07.365Z,9.05
2023-05-14T21:07:08.981Z,8.77
2023-05-14T21:08:10.783Z,9.73
2023-05-14T21:09:12.447Z,10.07
2023-05-14T21:10:14.085Z,8.18
2023-05-14T21:11:15.719Z,8.25
2023-05-14T21:12:17.470Z,10.15
2023-05-14T21:13:19.520Z,9.60
2023-05-14T21:14:21.160Z,9.48
2023-05-14T21:15:23.255Z,8.77
2023-05-14T21:16:25.182Z,9.05
2023-05-14T21:17:26.852Z,7.82
2023-05-14T21:18:28.572Z,10.80
2023-05-14T21:19:30.222Z,8.23
2023-05-14T21:20:31.854Z,9.30
2023-05-14T21:21:33.483Z,8.60
2023-05-14T21:22:35.123Z,9.57
2023-05-14T21:23:36.754Z,8.93
2023-05-14T21:24:38.412Z,8.90
2023-05-14T21:25:40.031Z,7.82
2023-05-14T21:26:41.628Z,8.48
2023-05-14T21:27:43.269Z,8.57
2023-05-14T21:28:44.881Z,9.55
2023-05-14T21:29:46.558Z,11.30
2023-05-14T21:30:49.746Z,9.85
2023-05-14T21:31:51.423Z,8.40
2023-05-14T21:32:53.071Z,8.85
2023-05-14T21:33:54.686Z,10.70
2023-05-14T21:34:56.339Z,10.07
2023-05-14T21:35:58.002Z,9.93
2023-05-14T21:36:59.623Z,10.02
2023-05-14T21:38:01.319Z,10.55
2023-05-14T21:39:02.934Z,12.10
2023-05-14T21:40:05.176Z,11.52
2023-05-14T21:41:06.814Z,10.15
2023-05-14T21:42:08.842Z,10.43
2023-05-14T21:43:10.482Z,12.35
2023-05-14T21:44:12.096Z,10.60
2023-05-14T21:45:13.736Z,11.73
2023-05-14T21:46:15.392Z,12.05
2023-05-14T21:47:17.035Z,13.30
2023-05-14T21:48:18.710Z,14.15
2023-05-14T21:49:20.388Z,12.23
2023-05-14T21:50:22.020Z,11.50
2023-05-14T21:51:24.123Z,11.10
2023-05-14T21:52:25.731Z,11.32
2023-05-14T21:53:27.368Z,10.32
2023-05-14T21:54:29.007Z,12.23
2023-05-14T21:55:30.658Z,12.05
2023-05-14T21:56:32.295Z,10.70
2023-05-14T21:57:34.631Z,8.90
2023-05-14T21:58:36.441Z,10.88
2023-05-14T21:59:38.123Z,13.10
2023-05-14T22:00:39.715Z,11.35
2023-05-14T22:02:00.706Z,11.10
2023-05-14T22:03:02.975Z,10.25
2023-05-14T22:04:05.046Z,10.02
2023-05-14T22:05:06.861Z,9.10
2023-05-14T22:06:08.476Z,9.13
2023-05-14T22:07:10.084Z,8.95
2023-05-14T22:08:11.716Z,9.52
2023-05-14T22:09:13.327Z,9.07
2023-05-14T22:10:15.330Z,7.75
2023-05-14T22:11:16.983Z,9.85
2023-05-14T22:12:18.613Z,17.20
2023-05-14T22:13:20.240Z,9.32
2023-05-14T22:14:21.868Z,9.95
2023-05-14T22:15:23.686Z,10.23
2023-05-14T22:16:25.546Z,7.63
2023-05-14T22:17:27.252Z,9.38
2023-05-14T22:18:28.916Z,8.30
2023-05-14T22:19:30.550Z,8.68
2023-05-14T22:20:32.173Z,8.25
2023-05-14T22:21:33.850Z,8.07
2023-05-14T22:22:35.473Z,8.65
2023-05-14T22:23:37.071Z,8.20
2023-05-14T22:24:38.748Z,7.88
2023-05-14T22:25:40.350Z,9.35
2023-05-14T22:26:41.967Z,8.48
2023-05-14T22:27:43.800Z,9.00
2023-05-14T22:28:45.395Z,10.82
2023-05-14T22:29:47.044Z,9.18
2023-05-14T22:30:48.711Z,9.95
2023-05-14T22:31:50.404Z,10.07
2023-05-14T22:32:52.159Z,12.02
2023-05-14T22:33:53.787Z,9.38
2023-05-14T22:34:55.417Z,8.13
2023-05-14T22:35:57.040Z,9.20
2023-05-14T22:36:58.675Z,8.70
2023-05-14T22:38:00.268Z,8.20
2023-05-14T22:39:01.906Z,8.50
2023-05-14T22:40:03.692Z,8.43
2023-05-14T22:41:05.346Z,7.80
2023-05-14T22:42:06.947Z,7.68
2023-05-14T22:43:08.609Z,7.15
2023-05-14T22:44:10.304Z,8.32
2023-05-14T22:45:11.977Z,7.97
2023-05-14T22:46:13.633Z,6.40
2023-05-14T22:47:15.220Z,6.47
2023-05-14T22:48:16.835Z,7.20
2023-05-14T22:49:18.445Z,7.25
2023-05-14T22:50:20.132Z,6.25
2023-05-14T22:51:21.750Z,6.40
2023-05-14T22:52:23.359Z,6.35
2023-05-14T22:53:25.360Z,6.85
2023-05-14T22:54:27.099Z,6.82
2023-05-14T22:55:28.717Z,7.72
2023-05-14T22:56:30.334Z,6.97
2023-05-14T22:57:32.624Z,6.03
2023-05-14T22:58:34.226Z,8.00
2023-05-14T22:59:35.858Z,5.95
2023-05-14T23:00:37.463Z,6.43
2023-05-14T23:01:39.212Z,6.65
2023-05-14T23:02:40.945Z,8.02
2023-05-14T23:03:42.602Z,6.45
2023-05-14T23:04:44.250Z,6.90
2023-05-14T23:05:45.906Z,6.30
2023-05-14T23:06:47.664Z,7.97
2023-05-14T23:07:49.266Z,8.02
2023-05-14T23:08:50.876Z,8.35
2023-05-14T23:09:52.554Z,6.03
2023-05-14T23:10:54.169Z,6.40
2023-05-14T23:11:55.763Z,6.65
2023-05-14T23:12:57.436Z,8.93
2023-05-14T23:13:59.074Z,6.60
2023-05-14T23:15:00.677Z,6.15
2023-05-14T23:16:02.324Z,6.32
2023-05-14T23:17:03.994Z,7.85
2023-05-14T23:18:05.787Z,6.18
2023-05-14T23:19:07.684Z,6.50
2023-05-14T23:20:09.703Z,5.63
2023-05-14T23:21:11.672Z,6.10
2023-05-14T23:22:13.282Z,6.10
2023-05-14T23:23:14.888Z,5.57
2023-05-14T23:24:18.638Z,6.90
2023-05-14T23:25:20.250Z,5.88
2023-05-14T23:26:21.844Z,6.63
2023-05-14T23:27:23.492Z,5.63
2023-05-14T23:28:25.112Z,7.07
2023-05-14T23:29:26.731Z,5.57
2023-05-14T23:30:28.351Z,5.93
2023-05-14T23:31:29.979Z,8.05
2023-05-14T23:32:31.653Z,6.18
2023-05-14T23:33:33.324Z,6.68
2023-05-14T23:34:34.927Z,5.93
2023-05-14T23:35:37.588Z,6.47
2023-05-14T23:36:39.182Z,6.68
2023-05-14T23:37:40.884Z,7.15
2023-05-14T23:38:42.676Z,6.50
2023-05-14T23:39:44.269Z,7.30
2023-05-14T23:40:45.905Z,7.07
2023-05-14T23:41:47.509Z,6.82
2023-05-14T23:42:49.144Z,9.02
2023-05-14T23:43:50.789Z,5.57
2023-05-14T23:44:52.405Z,7.22
2023-05-14T23:45:54.152Z,8.50
2023-05-14T23:46:55.773Z,6.43
2023-05-14T23:47:57.820Z,6.20
2023-05-14T23:48:59.477Z,7.43
2023-05-14T23:50:01.153Z,8.52
2023-05-14T23:51:02.817Z,7.72
2023-05-14T23:52:04.915Z,6.53
2023-05-14T23:53:06.552Z,8.25
2023-05-14T23:54:08.201Z,7.72
2023-05-14T23:55:09.951Z,5.40
2023-05-14T23:56:11.581Z,6.82
2023-05-14T23:57:14.417Z,6.00
2023-05-14T23:58:16.281Z,6.55
2023-05-14T23:59:18.081Z,5.80
